createdAt,value
2022-09-04T00:00:18.865Z,87.05
2022-09-04T00:02:58.726Z,88.06
2022-09-04T00:05:37.507Z,85.74
2022-09-04T00:08:12.380Z,84.88
2022-09-04T00:11:16.673Z,86.25
2022-09-04T00:13:51.727Z,86.33
2022-09-04T00:16:23.101Z,85.19
2022-09-04T00:18:56.828Z,85.04
2022-09-04T00:21:30.900Z,85.64
2022-09-04T00:24:05.663Z,85.42
2022-09-04T00:26:56.854Z,85.99
2022-09-04T00:30:01.880Z,85.29
2022-09-04T00:32:39.877Z,86.38
2022-09-04T00:35:24.200Z,86.41
2022-09-04T00:38:21.552Z,85.41
2022-09-04T00:41:11.404Z,84.44
2022-09-04T00:43:43.968Z,84.75
2022-09-04T00:46:48.550Z,85.69
2022-09-04T00:49:38.103Z,86.02
2022-09-04T00:52:35.337Z,85.97
2022-09-04T00:55:25.156Z,86.44
2022-09-04T00:58:09.140Z,86.44
2022-09-04T01:00:36.408Z,86.81
2022-09-04T01:03:18.376Z,87.15
2022-09-04T01:06:13.891Z,87.55
2022-09-04T01:09:14.236Z,88.02
2022-09-04T01:11:50.595Z,88.70
2022-09-04T01:14:38.352Z,89.84
2022-09-04T01:17:24.179Z,89.76
2022-09-04T01:20:13.023Z,89.60
2022-09-04T01:22:59.607Z,89.78
2022-09-04T01:26:04.053Z,90.41
2022-09-04T01:28:48.008Z,89.73
2022-09-04T01:31:39.610Z,90.78
2022-09-04T01:34:25.350Z,90.00
2022-09-04T01:37:14.693Z,89.21
2022-09-04T01:39:46.775Z,88.30
2022-09-04T01:42:43.285Z,86.65
2022-09-04T01:45:10.965Z,86.89
2022-09-04T01:47:46.741Z,86.75
2022-09-04T01:50:20.540Z,86.91
2022-09-04T01:53:12.656Z,87.28
2022-09-04T01:55:55.806Z,87.42
2022-09-04T01:58:35.390Z,87.44
2022-09-04T02:01:16.416Z,87.06
2022-09-04T02:03:56.315Z,87.10
2022-09-04T02:06:44.991Z,87.51
2022-09-04T02:09:33.384Z,88.36
2022-09-04T02:12:21.085Z,88.49
2022-09-04T02:15:29.494Z,89.56
2022-09-04T02:18:19.941Z,90.32
2022-09-04T02:20:59.884Z,90.16
2022-09-04T02:23:37.648Z,90.02
2022-09-04T02:26:17.125Z,89.57
2022-09-04T02:28:58.095Z,88.25
2022-09-04T02:31:33.537Z,86.73
2022-09-04T02:34:15.395Z,86.60
2022-09-04T02:37:08.659Z,86.67
2022-09-04T02:39:49.153Z,86.76
2022-09-04T02:42:41.094Z,86.51
2022-09-04T02:45:07.647Z,86.06
2022-09-04T02:48:01.478Z,86.28
2022-09-04T02:50:46.206Z,85.84
2022-09-04T02:53:37.845Z,85.96
2022-09-04T02:56:21.076Z,85.51
2022-09-04T02:58:54.095Z,85.76
2022-09-04T03:01:37.590Z,85.81
2022-09-04T03:04:19.594Z,85.25
2022-09-04T03:06:54.239Z,84.70
2022-09-04T03:09:32.311Z,84.65
2022-09-04T03:12:23.254Z,83.72
2022-09-04T03:15:16.524Z,83.98
2022-09-04T03:17:58.726Z,83.66
2022-09-04T03:20:28.878Z,83.66
2022-09-04T03:23:04.485Z,83.92
2022-09-04T03:25:59.043Z,83.65
2022-09-04T03:28:35.969Z,83.22
2022-09-04T03:31:31.467Z,83.03
2022-09-04T03:34:19.938Z,82.67
2022-09-04T03:37:07.469Z,82.46
2022-09-04T03:39:53.977Z,82.81
2022-09-04T03:42:43.512Z,83.38
2022-09-04T03:45:37.687Z,84.69
2022-09-04T03:48:23.209Z,85.05
2022-09-04T03:51:10.868Z,84.33
2022-09-04T03:53:44.044Z,83.87
2022-09-04T03:56:31.830Z,83.61
2022-09-04T03:59:04.175Z,84.00
2022-09-04T04:01:52.013Z,83.87
2022-09-04T04:04:36.052Z,84.95
2022-09-04T04:07:19.840Z,85.14
2022-09-04T04:10:20.977Z,84.44
2022-09-04T04:13:12.322Z,83.77
2022-09-04T04:16:28.121Z,82.90
2022-09-04T04:19:33.724Z,82.74
2022-09-04T04:22:19.235Z,82.98
2022-09-04T04:25:33.880Z,82.51
2022-09-04T04:28:19.879Z,82.74
2022-09-04T04:30:57.323Z,82.22
2022-09-04T04:33:42.373Z,81.79
2022-09-04T04:36:24.607Z,82.22
2022-09-04T04:39:04.646Z,81.91
2022-09-04T04:42:06.167Z,81.40
2022-09-04T04:45:14.009Z,81.77
2022-09-04T04:48:19.776Z,81.94
2022-09-04T04:51:32.115Z,82.12
2022-09-04T04:54:27.573Z,82.08
2022-09-04T04:57:26.815Z,81.70
2022-09-04T04:59:55.761Z,81.80
2022-09-04T05:02:31.052Z,81.85
2022-09-04T05:05:19.493Z,81.61
2022-09-04T05:08:22.460Z,81.79
2022-09-04T05:10:56.372Z,82.17
2022-09-04T05:13:33.139Z,82.35
2022-09-04T05:16:19.063Z,81.87
2022-09-04T05:19:16.482Z,81.83
2022-09-04T05:21:50.032Z,81.65
2022-09-04T05:24:35.100Z,81.91
2022-09-04T05:27:31.283Z,82.07
2022-09-04T05:30:09.102Z,81.79
2022-09-04T05:32:48.942Z,81.74
2022-09-04T05:35:23.209Z,81.90
2022-09-04T05:38:16.101Z,81.45
2022-09-04T05:41:06.200Z,81.10
2022-09-04T05:44:08.142Z,80.99
2022-09-04T05:46:51.742Z,81.15
2022-09-04T05:49:27.661Z,81.01
2022-09-04T05:52:09.048Z,81.58
2022-09-04T05:55:10.621Z,82.09
2022-09-04T05:57:56.460Z,81.42
2022-09-04T06:00:23.153Z,81.90
2022-09-04T06:03:30.177Z,79.85
2022-09-04T06:06:06.786Z,80.49
2022-09-04T06:08:51.788Z,81.76
2022-09-04T06:11:51.410Z,83.01
2022-09-04T06:14:49.348Z,83.48
2022-09-04T06:17:53.567Z,82.26
2022-09-04T06:20:40.745Z,81.59
2022-09-04T06:23:18.261Z,80.93
2022-09-04T06:26:06.486Z,79.67
2022-09-04T06:28:43.672Z,80.11
2022-09-04T06:31:18.753Z,79.49
2022-09-04T06:33:53.052Z,79.10
2022-09-04T06:36:40.790Z,78.52
2022-09-04T06:39:30.119Z,77.82
2022-09-04T06:41:56.671Z,76.94
2022-09-04T06:44:41.078Z,77.71
2022-09-04T06:47:31.219Z,77.61
2022-09-04T06:50:08.756Z,78.38
2022-09-04T06:53:04.860Z,79.10
2022-09-04T06:55:50.033Z,78.29
2022-09-04T06:58:47.800Z,77.34
2022-09-04T07:01:40.450Z,80.07
2022-09-04T07:04:51.356Z,80.38
2022-09-04T07:07:27.465Z,79.92
2022-09-04T07:10:01.053Z,79.66
2022-09-04T07:12:50.207Z,81.61
2022-09-04T07:15:49.639Z,84.55
2022-09-04T07:18:54.416Z,85.27
2022-09-04T07:21:49.423Z,85.46
2022-09-04T07:24:49.384Z,84.28
2022-09-04T07:27:36.151Z,83.74
2022-09-04T07:30:13.515Z,81.56
2022-09-04T07:32:56.352Z,81.11
2022-09-04T07:35:36.908Z,81.02
2022-09-04T07:38:24.697Z,78.18
2022-09-04T07:40:58.790Z,76.95
2022-09-04T07:43:54.466Z,76.21
2022-09-04T07:46:33.520Z,76.50
2022-09-04T07:49:19.065Z,74.94
2022-09-04T07:51:54.848Z,74.54
2022-09-04T07:54:50.678Z,76.61
2022-09-04T07:57:32.023Z,78.05
2022-09-04T08:00:14.042Z,78.56
2022-09-04T08:03:02.794Z,78.75
2022-09-04T08:05:33.681Z,76.84
2022-09-04T08:08:03.726Z,78.47
2022-09-04T08:11:00.644Z,79.70
2022-09-04T08:13:35.333Z,79.24
2022-09-04T08:16:24.029Z,78.45
2022-09-04T08:18:57.628Z,77.89
2022-09-04T08:21:35.582Z,76.62
2022-09-04T08:24:20.213Z,75.23
2022-09-04T08:27:02.997Z,75.13
2022-09-04T08:29:50.555Z,75.07
2022-09-04T08:32:47.276Z,76.64
2022-09-04T08:35:19.360Z,78.11
2022-09-04T08:37:54.424Z,77.87
2022-09-04T08:40:53.509Z,76.98
2022-09-04T08:43:45.806Z,76.02
2022-09-04T08:46:34.595Z,75.42
2022-09-04T08:49:32.002Z,75.79
2022-09-04T08:52:25.662Z,78.09
2022-09-04T08:55:24.349Z,78.24
2022-09-04T08:58:24.226Z,77.99
2022-09-04T09:00:57.072Z,77.49
2022-09-04T09:03:50.966Z,75.87
2022-09-04T09:06:38.350Z,74.74
2022-09-04T09:09:46.614Z,72.82
2022-09-04T09:12:54.011Z,73.19
2022-09-04T09:15:51.131Z,73.30
2022-09-04T09:18:54.764Z,71.91
2022-09-04T09:21:44.773Z,72.78
2022-09-04T09:24:26.709Z,71.63
2022-09-04T09:27:11.713Z,72.69
2022-09-04T09:29:42.278Z,72.21
2022-09-04T09:32:40.557Z,72.63
2022-09-04T09:35:41.801Z,71.41
2022-09-04T09:38:34.800Z,70.41
2022-09-04T09:41:39.195Z,69.41
2022-09-04T09:44:27.023Z,70.74
2022-09-04T09:47:24.934Z,71.39
2022-09-04T09:50:22.706Z,70.60
2022-09-04T09:53:14.431Z,70.06
2022-09-04T09:56:13.708Z,69.51
2022-09-04T09:59:18.390Z,69.75
2022-09-04T10:02:22.839Z,70.64
2022-09-04T10:05:19.658Z,70.34
2022-09-04T10:07:57.912Z,68.67
2022-09-04T10:11:02.840Z,67.49
2022-09-04T10:13:51.096Z,66.01
2022-09-04T10:16:36.097Z,64.73
2022-09-04T10:19:20.653Z,63.84
2022-09-04T10:22:11.701Z,62.23
2022-09-04T10:25:07.396Z,62.58
2022-09-04T10:27:57.221Z,62.34
2022-09-04T10:30:24.551Z,61.18
2022-09-04T10:33:27.172Z,60.61
2022-09-04T10:36:30.832Z,59.25
2022-09-04T10:39:29.844Z,58.88
2022-09-04T10:42:11.141Z,58.98
2022-09-04T10:44:48.439Z,59.03
2022-09-04T10:47:38.075Z,59.80
2022-09-04T10:50:26.670Z,58.74
2022-09-04T10:53:03.013Z,56.21
2022-09-04T10:55:43.723Z,56.63
2022-09-04T10:58:58.059Z,56.56
2022-09-04T11:01:36.917Z,56.47
2022-09-04T11:04:22.444Z,57.00
2022-09-04T11:07:11.329Z,57.25
2022-09-04T11:10:05.460Z,56.82
2022-09-04T11:12:41.779Z,54.42
2022-09-04T11:15:26.590Z,54.53
2022-09-04T11:17:59.013Z,54.25
2022-09-04T11:21:02.947Z,54.19
2022-09-04T11:23:48.488Z,53.17
2022-09-04T11:26:39.910Z,53.73
2022-09-04T11:29:24.752Z,53.37
2022-09-04T11:32:24.037Z,51.98
2022-09-04T11:35:19.238Z,51.75
2022-09-04T11:38:43.597Z,52.40
2022-09-04T11:41:28.970Z,52.32
2022-09-04T11:44:25.137Z,51.64
2022-09-04T11:47:12.129Z,51.63
2022-09-04T11:49:50.943Z,51.98
2022-09-04T11:52:35.775Z,50.95
2022-09-04T11:55:20.824Z,50.04
2022-09-04T11:58:08.441Z,50.44
2022-09-04T12:00:58.307Z,51.57
2022-09-04T12:03:49.419Z,51.69
2022-09-04T12:06:35.297Z,50.68
2022-09-04T12:09:34.595Z,48.61
2022-09-04T12:12:16.478Z,47.43
2022-09-04T12:15:07.349Z,48.41
2022-09-04T12:18:09.763Z,48.40
2022-09-04T12:21:18.135Z,49.59
2022-09-04T12:24:04.822Z,49.98
2022-09-04T12:27:11.488Z,50.34
2022-09-04T12:29:59.803Z,49.68
2022-09-04T12:32:35.790Z,49.05
2022-09-04T12:35:32.010Z,47.58
2022-09-04T12:38:24.442Z,47.25
2022-09-04T12:41:17.800Z,48.13
2022-09-04T12:44:13.004Z,47.39
2022-09-04T12:46:55.865Z,47.16
2022-09-04T12:49:40.570Z,48.23
2022-09-04T12:52:36.518Z,50.12
2022-09-04T12:55:15.815Z,49.65
2022-09-04T12:57:57.357Z,48.17
2022-09-04T13:00:42.036Z,48.56
2022-09-04T13:03:28.541Z,48.92
2022-09-04T13:06:14.230Z,49.57
2022-09-04T13:09:12.878Z,49.98
2022-09-04T13:12:13.454Z,49.70
2022-09-04T13:15:11.098Z,49.67
2022-09-04T13:17:58.187Z,48.32
2022-09-04T13:20:40.156Z,48.66
2022-09-04T13:23:27.593Z,45.66
2022-09-04T13:26:34.318Z,46.00
2022-09-04T13:29:51.444Z,45.95
2022-09-04T13:32:35.362Z,44.88
2022-09-04T13:35:31.305Z,45.45
2022-09-04T13:38:18.761Z,45.17
2022-09-04T13:41:19.385Z,44.43
2022-09-04T13:43:46.011Z,43.52
2022-09-04T13:46:20.555Z,42.58
2022-09-04T13:48:52.841Z,42.61
2022-09-04T13:51:32.918Z,42.48
2022-09-04T13:54:05.057Z,42.26
2022-09-04T13:57:04.522Z,42.83
2022-09-04T13:59:31.907Z,41.81
2022-09-04T14:02:04.461Z,43.17
2022-09-04T14:04:36.555Z,41.40
2022-09-04T14:07:11.565Z,45.49
2022-09-04T14:09:43.826Z,43.48
2022-09-04T14:12:48.702Z,41.57
2022-09-04T14:15:32.817Z,41.76
2022-09-04T14:18:27.397Z,41.19
2022-09-04T14:21:03.481Z,39.64
2022-09-04T14:23:30.199Z,39.79
2022-09-04T14:26:12.462Z,38.04
2022-09-04T14:28:52.640Z,40.40
2022-09-04T14:31:32.773Z,39.85
2022-09-04T14:34:15.978Z,35.29
2022-09-04T14:37:01.289Z,38.24
2022-09-04T14:39:37.367Z,34.39
2022-09-04T14:42:22.145Z,33.00
2022-09-04T14:45:01.591Z,35.10
2022-09-04T14:47:45.077Z,35.07
2022-09-04T14:50:14.878Z,34.74
2022-09-04T14:52:43.403Z,34.70
2022-09-04T14:55:16.952Z,34.29
2022-09-04T14:57:59.873Z,31.97
2022-09-04T15:00:29.217Z,32.30
2022-09-04T15:03:05.312Z,32.77
2022-09-04T15:05:37.175Z,29.99
2022-09-04T15:08:07.836Z,31.04
2022-09-04T15:10:49.806Z,30.45
2022-09-04T15:13:51.653Z,31.11
2022-09-04T15:16:44.273Z,33.08
2022-09-04T15:19:32.621Z,33.12
2022-09-04T15:22:08.373Z,33.86
2022-09-04T15:24:48.314Z,33.46
2022-09-04T15:27:23.580Z,36.48
2022-09-04T15:29:53.285Z,37.60
2022-09-04T15:32:23.486Z,38.41
2022-09-04T15:35:05.668Z,39.18
2022-09-04T15:37:33.816Z,38.64
2022-09-04T15:40:12.768Z,38.20
2022-09-04T15:42:46.694Z,39.13
2022-09-04T15:45:23.489Z,41.28
2022-09-04T15:48:29.432Z,42.18
2022-09-04T15:51:10.072Z,39.43
2022-09-04T15:53:40.619Z,43.40
2022-09-04T15:56:29.383Z,42.92
2022-09-04T15:59:36.426Z,40.83
2022-09-04T16:02:20.654Z,41.07
2022-09-04T16:04:50.888Z,40.01
2022-09-04T16:07:36.715Z,40.62
2022-09-04T16:10:21.501Z,40.77
2022-09-04T16:12:56.735Z,39.70
2022-09-04T16:15:30.532Z,39.47
2022-09-04T16:18:02.396Z,38.71
2022-09-04T16:21:00.304Z,41.45
2022-09-04T16:23:33.668Z,39.78
2022-09-04T16:26:10.573Z,40.77
2022-09-04T16:28:51.322Z,41.47
2022-09-04T16:31:34.646Z,40.62
2022-09-04T16:34:13.373Z,41.39
2022-09-04T16:36:49.134Z,39.70
2022-09-04T16:39:32.765Z,41.04
2022-09-04T16:42:10.260Z,42.33
2022-09-04T16:44:45.392Z,42.74
2022-09-04T16:47:18.604Z,43.13
2022-09-04T16:50:18.025Z,40.64
2022-09-04T16:52:53.877Z,39.35
2022-09-04T16:56:15.048Z,41.46
2022-09-04T16:58:56.517Z,40.61
2022-09-04T17:01:46.655Z,39.94
2022-09-04T17:04:14.504Z,40.50
2022-09-04T17:07:08.627Z,42.07
2022-09-04T17:09:58.657Z,40.79
2022-09-04T17:12:42.011Z,41.41
2022-09-04T17:15:25.518Z,41.28
2022-09-04T17:17:54.332Z,42.22
2022-09-04T17:21:44.716Z,41.14
2022-09-04T17:29:00.868Z,42.38
2022-09-04T17:29:18.799Z,42.60
2022-09-04T17:29:41.694Z,42.59
2022-09-04T17:35:38.219Z,43.12
2022-09-04T17:40:43.286Z,42.37
2022-09-04T17:40:48.034Z,43.13
2022-09-04T17:41:47.350Z,41.85
2022-09-04T17:44:27.346Z,42.36
2022-09-04T17:47:04.529Z,43.38
2022-09-04T17:49:34.850Z,44.04
2022-09-04T17:52:08.633Z,43.16
2022-09-04T17:54:41.527Z,43.24
2022-09-04T17:57:18.544Z,43.91
2022-09-04T17:59:56.747Z,44.97
2022-09-04T18:02:44.721Z,46.13
2022-09-04T18:05:28.793Z,45.08
2022-09-04T18:08:16.358Z,46.07
2022-09-04T18:10:45.988Z,46.10
2022-09-04T18:13:36.885Z,46.14
2022-09-04T18:16:26.188Z,46.11
2022-09-04T18:18:55.273Z,45.82
2022-09-04T18:21:28.847Z,45.89
2022-09-04T18:24:17.724Z,45.57
2022-09-04T18:27:15.084Z,46.01
2022-09-04T18:34:48.812Z,45.76
2022-09-04T18:37:18.211Z,45.48
2022-09-04T18:37:26.561Z,45.48
2022-09-04T18:38:46.756Z,45.71
2022-09-04T18:47:26.698Z,46.37
2022-09-04T18:50:33.083Z,46.50
2022-09-04T18:50:50.303Z,46.94
2022-09-04T18:53:35.500Z,47.08
2022-09-04T18:56:20.225Z,47.07
2022-09-04T18:59:14.598Z,47.35
2022-09-04T19:01:58.397Z,46.96
2022-09-04T19:04:31.313Z,47.09
2022-09-04T19:07:19.083Z,46.81
2022-09-04T19:10:15.781Z,47.21
2022-09-04T19:12:53.765Z,47.60
2022-09-04T19:15:46.030Z,48.08
2022-09-04T19:18:56.021Z,48.19
2022-09-04T19:21:36.172Z,48.21
2022-09-04T19:24:34.271Z,48.19
2022-09-04T19:27:25.079Z,48.42
2022-09-04T19:30:17.568Z,48.52
2022-09-04T19:33:08.561Z,48.79
2022-09-04T19:35:46.587Z,48.89
2022-09-04T19:45:55.600Z,49.12
2022-09-04T19:46:05.990Z,49.32
2022-09-04T19:46:06.214Z,49.96
2022-09-04T19:47:45.176Z,49.50
2022-09-04T19:53:04.822Z,49.14
2022-09-04T19:53:40.491Z,48.76
2022-09-04T19:56:17.203Z,48.80
2022-09-04T19:58:56.905Z,47.84
2022-09-04T20:01:29.213Z,47.48
2022-09-04T20:04:08.573Z,47.28
2022-09-04T20:06:50.833Z,46.27
2022-09-04T20:09:26.371Z,47.04
2022-09-04T20:12:03.862Z,47.75
2022-09-04T20:14:45.797Z,47.75
2022-09-04T20:17:40.713Z,47.58
2022-09-04T20:20:30.150Z,47.49
2022-09-04T20:23:34.932Z,47.58
2022-09-04T20:26:03.577Z,47.88
2022-09-04T20:28:56.176Z,50.02
2022-09-04T20:31:36.708Z,50.95
2022-09-04T20:34:29.593Z,51.16
2022-09-04T20:37:22.544Z,51.14
2022-09-04T20:40:04.888Z,51.45
2022-09-04T20:42:42.460Z,51.30
2022-09-04T20:48:49.718Z,51.26
2022-09-04T20:52:53.305Z,51.12
2022-09-04T20:53:05.873Z,50.68
2022-09-04T20:54:38.893Z,51.02
2022-09-04T21:03:09.195Z,51.06
2022-09-04T21:03:09.791Z,51.58
2022-09-04T21:03:20.993Z,52.16
2022-09-04T21:06:25.948Z,52.11
2022-09-04T21:08:52.513Z,52.05
2022-09-04T21:11:52.056Z,53.14
2022-09-04T21:14:39.790Z,51.25
2022-09-04T21:17:35.995Z,50.78
2022-09-04T21:20:22.616Z,51.26
2022-09-04T21:23:24.199Z,51.64
2022-09-04T21:26:24.292Z,52.65
2022-09-04T21:29:21.616Z,53.35
2022-09-04T21:32:00.590Z,53.15
2022-09-04T21:35:10.096Z,52.98
2022-09-04T21:37:45.687Z,52.73
2022-09-04T21:40:42.248Z,52.74
2022-09-04T21:43:48.388Z,52.74
2022-09-04T21:46:41.298Z,52.92
2022-09-04T21:49:26.301Z,52.84
2022-09-04T21:52:21.475Z,53.46
2022-09-04T21:59:13.604Z,54.27
2022-09-04T22:02:32.574Z,54.16
2022-09-04T22:02:35.824Z,53.62
2022-09-04T22:04:28.997Z,53.22
2022-09-04T22:08:54.695Z,53.04
2022-09-04T22:13:38.391Z,53.09
2022-09-04T22:13:46.657Z,52.85
2022-09-04T22:15:58.247Z,52.91
2022-09-04T22:18:53.501Z,53.08
2022-09-04T22:21:29.634Z,52.99
2022-09-04T22:24:23.896Z,53.42
2022-09-04T22:27:11.905Z,53.41
2022-09-04T22:30:15.616Z,53.43
2022-09-04T22:33:16.151Z,53.68
2022-09-04T22:36:18.733Z,53.85
2022-09-04T22:39:31.438Z,54.11
2022-09-04T22:42:24.469Z,54.52
2022-09-04T22:45:12.700Z,54.48
2022-09-04T22:48:17.225Z,55.22
2022-09-04T22:51:09.137Z,55.42
2022-09-04T22:54:06.462Z,55.53
2022-09-04T22:56:46.829Z,55.33
2022-09-04T22:59:31.961Z,55.03
2022-09-04T23:07:28.005Z,54.55
2022-09-04T23:13:56.670Z,54.65
2022-09-04T23:13:57.901Z,54.54
2022-09-04T23:15:30.671Z,54.34
2022-09-04T23:19:01.796Z,54.31
2022-09-04T23:26:34.980Z,54.23
2022-09-04T23:26:58.514Z,54.40
2022-09-04T23:27:28.825Z,54.78
2022-09-04T23:30:10.371Z,54.88
2022-09-04T23:32:50.755Z,55.12
2022-09-04T23:35:46.238Z,55.32
2022-09-04T23:38:27.749Z,55.50
2022-09-04T23:41:03.898Z,55.06
2022-09-04T23:43:46.741Z,54.81
2022-09-04T23:46:42.803Z,55.09
2022-09-04T23:49:37.632Z,54.94
2022-09-04T23:52:14.776Z,55.10
2022-09-04T23:54:53.916Z,55.26
2022-09-04T23:57:41.971Z,55.21
